Time;durP1;ratioP1;P1;durP2;ratioP2;P2;SDS_P1;SDS_P2;PMS_P1;PMS_P2;Temp;Humidity;BMP_temperature;BMP_pressure;BME280_temperature;BME280_humidity;BME280_pressure;Samples;Min_cycle;Max_cycle;Signal;HPM_P1;HPM_P2
2022/05/26 00:03:55;;;;;;;2.90;2.60;;;12.70;7.10;;;;;;8346729;28;20235;-78
2022/05/26 00:07:56;;;;;;;3.23;2.40;;;12.50;23.00;;;;;;8323577;28;20196;-78
2022/05/26 00:11:56;;;;;;;3.27;2.80;;;12.40;93.80;;;;;;8321890;28;20183;-78
2022/05/26 00:15:57;;;;;;;3.27;2.87;;;12.20;99.90;;;;;;8329426;28;20194;-78
2022/05/26 00:19:58;;;;;;;3.20;2.93;;;12.10;99.90;;;;;;8332059;28;20192;-78
2022/05/26 00:23:59;;;;;;;5.83;3.60;;;12.00;99.90;;;;;;8326797;28;20216;-80
2022/05/26 00:28:00;;;;;;;3.40;3.00;;;12.00;99.90;;;;;;8325936;28;20245;-78
2022/05/26 00:32:01;;;;;;;4.43;3.10;;;11.90;99.90;;;;;;8318045;28;20211;-78
2022/05/26 00:36:07;;;;;;;4.87;3.37;;;11.90;99.90;;;;;;8325335;28;20214;-78
2022/05/26 00:40:09;;;;;;;5.93;3.03;;;11.90;99.90;;;;;;8325640;28;20205;-78
2022/05/26 00:44:10;;;;;;;5.20;3.10;;;11.90;99.90;;;;;;8340731;28;20217;-77
2022/05/26 00:48:15;;;;;;;4.97;3.13;;;12.00;99.90;;;;;;8330328;28;20250;-79
2022/05/26 00:52:28;;;;;;;5.20;3.30;;;12.20;99.90;;;;;;8330277;28;20268;-79
2022/05/26 00:57:00;;;;;;;4.27;3.10;;;12.30;99.90;;;;;;8332562;28;20219;-79
2022/05/26 01:01:02;;;;;;;3.93;3.20;;;12.30;99.90;;;;;;8333615;28;20194;-79
2022/05/26 01:05:26;;;;;;;2.87;2.50;;;12.30;99.90;;;;;;8353551;28;20215;-78
2022/05/26 01:09:27;;;;;;;2.90;2.60;;;12.20;99.90;;;;;;8335247;28;20203;-79
2022/05/26 01:13:31;;;;;;;2.93;2.63;;;12.00;99.90;;;;;;8333096;28;20213;-79
2022/05/26 01:17:47;;;;;;;3.50;2.70;;;11.90;99.90;;;;;;8344997;28;20194;-78
2022/05/26 01:22:16;;;;;;;5.07;2.80;;;11.80;99.90;;;;;;8334582;28;20393;-80
2022/05/26 01:26:48;;;;;;;4.07;2.40;;;11.70;99.90;;;;;;8315599;28;20218;-79
2022/05/26 01:30:58;;;;;;;4.90;2.83;;;11.50;99.90;;;;;;8347195;28;20198;-78
2022/05/26 01:35:17;;;;;;;2.80;2.37;;;11.50;99.90;;;;;;8330871;28;20206;-79
2022/05/26 01:39:36;;;;;;;3.17;2.87;;;11.40;99.90;;;;;;8343402;28;20219;-80
2022/05/26 01:43:52;;;;;;;4.47;2.70;;;11.40;99.90;;;;;;8333588;28;20214;-80
2022/05/26 01:48:06;;;;;;;3.13;2.60;;;11.30;99.90;;;;;;8325015;28;20208;-79
2022/05/26 01:52:17;;;;;;;2.57;2.37;;;11.30;99.90;;;;;;8333320;28;20227;-79
2022/05/26 01:56:37;;;;;;;4.60;2.60;;;11.30;99.90;;;;;;8326066;28;20202;-78
2022/05/26 02:00:39;;;;;;;2.77;2.33;;;11.20;99.90;;;;;;8324928;28;20217;-78
2022/05/26 02:04:45;;;;;;;3.23;2.27;;;11.20;99.90;;;;;;8333173;28;20482;-79
2022/05/26 02:08:52;;;;;;;2.93;2.60;;;11.20;99.90;;;;;;8334576;28;20183;-79
2022/05/26 02:12:59;;;;;;;3.33;2.57;;;11.20;99.90;;;;;;8331933;28;20186;-78
2022/05/26 02:17:23;;;;;;;4.40;2.00;;;11.20;99.90;;;;;;8329308;28;20194;-78
2022/05/26 02:21:36;;;;;;;3.80;2.60;;;11.20;99.90;;;;;;8330098;28;20213;-78
2022/05/26 02:25:37;;;;;;;4.03;2.50;;;11.20;99.90;;;;;;8348964;28;20206;-78
2022/05/26 02:29:53;;;;;;;3.30;2.70;;;11.20;99.90;;;;;;8331266;28;20197;-78
2022/05/26 02:33:58;;;;;;;5.40;2.30;;;11.30;99.90;;;;;;8330718;28;20190;-79
2022/05/26 02:38:19;;;;;;;3.27;2.27;;;11.40;99.90;;;;;;8324318;28;20190;-78
2022/05/26 02:42:21;;;;;;;4.00;2.20;;;11.50;99.90;;;;;;8343164;28;20228;-79
2022/05/26 02:47:03;;;;;;;3.57;2.23;;;11.50;99.90;;;;;;8332344;28;20214;-80
2022/05/26 02:51:16;;;;;;;2.90;1.90;;;11.70;99.90;;;;;;8210310;28;20183;-80
2022/05/26 02:55:45;;;;;;;5.97;2.00;;;11.80;99.90;;;;;;8332545;28;20201;-80
2022/05/26 02:59:50;;;;;;;4.57;2.13;;;11.90;99.90;;;;;;8328937;28;20190;-80
2022/05/26 03:04:17;;;;;;;3.20;1.93;;;12.10;4.80;;;;;;8338294;28;20524;-80
2022/05/26 03:08:22;;;;;;;1.70;1.50;;;12.20;1.00;;;;;;8317453;28;20192;-75
2022/05/26 03:12:33;;;;;;;3.03;1.80;;;12.30;99.90;;;;;;8335658;28;20190;-77
2022/05/26 03:16:34;;;;;;;1.93;1.40;;;12.40;99.90;;;;;;8324573;28;20582;-76
2022/05/26 03:20:35;;;;;;;2.47;1.67;;;12.50;44.00;;;;;;8331599;28;20196;-77
2022/05/26 03:24:36;;;;;;;4.13;1.40;;;12.60;99.90;;;;;;8332729;28;20217;-78
2022/05/26 03:28:37;;;;;;;3.40;1.37;;;12.80;99.90;;;;;;8331242;28;20205;-76
2022/05/26 03:32:38;;;;;;;2.63;1.40;;;12.90;99.90;;;;;;8329308;28;20197;-76
2022/05/26 03:40:58;;;;;;;3.10;1.17;;;13.10;99.90;;;;;;8342758;28;20274;-76
2022/05/26 03:45:01;;;;;;;1.53;1.33;;;13.20;99.90;;;;;;8329703;28;20216;-76
2022/05/26 03:49:01;;;;;;;1.60;1.37;;;13.30;63.70;;;;;;8327342;28;20301;-76
2022/05/26 03:53:03;;;;;;;1.47;1.30;;;13.40;1.00;;;;;;8325659;28;20189;-79
2022/05/26 03:57:04;;;;;;;5.17;1.57;;;13.60;1.00;;;;;;8329099;28;20192;-76
2022/05/26 04:01:07;;;;;;;2.83;1.30;;;13.70;1.00;;;;;;8335458;28;20185;-76
2022/05/26 04:05:10;;;;;;;2.43;1.40;;;13.70;99.90;;;;;;8332561;28;20221;-79
2022/05/26 04:09:11;;;;;;;2.13;1.10;;;13.80;99.90;;;;;;8324175;28;20268;-75
2022/05/26 04:13:12;;;;;;;2.20;1.33;;;13.80;99.90;;;;;;8347686;28;20194;-74
2022/05/26 04:17:12;;;;;;;2.47;1.13;;;13.80;1.00;;;;;;8315094;28;20194;-77
2022/05/26 04:21:14;;;;;;;1.93;1.00;;;13.90;99.90;;;;;;8322813;28;20236;-73
2022/05/26 04:25:17;;;;;;;2.63;1.20;;;13.90;99.90;;;;;;8324632;28;20214;-74
2022/05/26 04:29:17;;;;;;;1.83;1.10;;;13.90;99.90;;;;;;8320108;28;20194;-78
2022/05/26 04:33:18;;;;;;;2.50;1.13;;;13.90;99.90;;;;;;8343572;28;20218;-75
2022/05/26 04:37:21;;;;;;;2.43;1.20;;;13.90;99.90;;;;;;8321539;28;20241;-74
2022/05/26 04:41:22;;;;;;;1.67;1.07;;;14.10;99.90;;;;;;8327037;28;20254;-75
2022/05/26 04:45:23;;;;;;;1.30;1.10;;;14.20;99.90;;;;;;8328323;28;20205;-77
2022/05/26 04:49:24;;;;;;;2.23;0.93;;;14.30;99.90;;;;;;8322597;28;20188;-79
2022/05/26 04:53:25;;;;;;;3.87;1.23;;;14.50;99.90;;;;;;8326393;28;20201;-74
2022/05/26 04:57:25;;;;;;;2.77;1.10;;;14.60;99.90;;;;;;8329533;28;20182;-79
2022/05/26 05:01:27;;;;;;;2.67;1.07;;;14.80;99.90;;;;;;8329217;28;20204;-75
2022/05/26 05:05:27;;;;;;;1.27;1.03;;;15.00;99.90;;;;;;8325380;28;20233;-75
2022/05/26 05:09:28;;;;;;;2.93;1.13;;;15.20;53.90;;;;;;8343368;28;20217;-77
2022/05/26 05:13:29;;;;;;;1.73;1.00;;;15.50;22.70;;;;;;8328489;28;20225;-75
2022/05/26 05:17:30;;;;;;;1.47;0.93;;;15.70;1.00;;;;;;8320573;28;20277;-79
2022/05/26 05:21:51;;;;;;;1.40;1.00;;;15.90;1.00;;;;;;8321337;28;20194;-74
2022/05/26 05:25:54;;;;;;;1.10;1.00;;;16.10;1.00;;;;;;8325633;28;20219;-77
2022/05/26 05:29:58;;;;;;;2.77;1.23;;;16.40;1.00;;;;;;8327983;28;20218;-76
2022/05/26 05:34:03;;;;;;;2.00;0.97;;;16.70;99.90;;;;;;8326679;28;20229;-76
2022/05/26 05:38:04;;;;;;;3.97;1.33;;;16.80;99.90;;;;;;8333260;28;20163;-74
2022/05/26 05:42:06;;;;;;;1.20;0.80;;;17.20;99.90;;;;;;8323985;28;20198;-75
2022/05/26 05:46:08;;;;;;;1.30;0.80;;;17.40;99.90;;;;;;8329238;28;20217;-75
2022/05/26 05:50:09;;;;;;;1.33;0.90;;;17.60;99.90;;;;;;8334983;28;20189;-75
2022/05/26 05:54:10;;;;;;;3.03;1.10;;;17.80;99.90;;;;;;8349740;28;20183;-75
2022/05/26 05:58:11;;;;;;;1.27;0.70;;;17.70;99.90;;;;;;8350629;28;20193;-75
2022/05/26 06:02:12;;;;;;;1.97;0.80;;;17.70;99.90;;;;;;8327699;28;20198;-78
2022/05/26 06:06:14;;;;;;;1.70;0.70;;;18.00;99.90;;;;;;8330440;28;20218;-74
2022/05/26 06:10:15;;;;;;;1.63;0.93;;;18.30;99.90;;;;;;8329035;28;20189;-78
2022/05/26 06:14:16;;;;;;;2.37;0.60;;;18.60;99.90;;;;;;8338536;28;20187;-76
2022/05/26 06:18:17;;;;;;;3.00;0.73;;;18.60;99.90;;;;;;8342273;28;20193;-78
2022/05/26 06:22:21;;;;;;;2.20;0.70;;;18.50;76.30;;;;;;8349046;28;20233;-77
2022/05/26 06:26:21;;;;;;;1.20;0.40;;;18.60;86.50;;;;;;8351414;28;20344;-79
2022/05/26 06:30:26;;;;;;;1.70;0.50;;;18.90;90.30;;;;;;8344634;28;20201;-80
2022/05/26 06:38:46;;;;;;;2.50;0.67;;;19.60;20.70;;;;;;8348570;28;20288;-80
2022/05/26 06:42:48;;;;;;;0.63;0.33;;;19.70;10.50;;;;;;8348328;28;20182;-77
2022/05/26 06:46:49;;;;;;;2.10;0.40;;;20.10;15.20;;;;;;8325640;28;20313;-78
2022/05/26 06:50:50;;;;;;;1.47;0.57;;;20.20;1.00;;;;;;8333229;28;20178;-77
2022/05/26 06:54:51;;;;;;;1.27;0.50;;;20.60;1.00;;;;;;8342348;28;20227;-76
2022/05/26 06:58:52;;;;;;;2.13;0.43;;;20.40;1.00;;;;;;8325327;28;20197;-78
2022/05/26 07:02:53;;;;;;;1.00;0.60;;;20.20;1.00;;;;;;8345693;28;20246;-75
2022/05/26 07:06:55;;;;;;;0.80;0.30;;;20.00;1.00;;;;;;8332238;28;20323;-76
2022/05/26 07:11:00;;;;;;;2.47;0.57;;;20.10;1.00;;;;;;8332431;28;20217;-75
2022/05/26 07:15:03;;;;;;;4.90;0.50;;;20.30;1.00;;;;;;8319686;28;20585;-75
2022/05/26 07:19:04;;;;;;;1.33;0.30;;;20.30;1.00;;;;;;8339195;28;20174;-75
2022/05/26 07:23:10;;;;;;;4.17;0.60;;;20.20;1.00;;;;;;8344492;28;20212;-78
2022/05/26 07:27:11;;;;;;;1.50;0.60;;;20.20;1.00;;;;;;8329601;28;20233;-78
2022/05/26 07:31:13;;;;;;;3.60;0.50;;;20.30;1.00;;;;;;8335192;28;20209;-77
2022/05/26 07:35:14;;;;;;;1.60;0.43;;;20.30;1.00;;;;;;8335219;28;20185;-75
2022/05/26 07:43:34;;;;;;;3.23;0.67;;;20.50;1.00;;;;;;8341261;28;20208;-78
2022/05/26 07:47:37;;;;;;;2.87;0.67;;;20.60;1.00;;;;;;8324159;28;20186;-77
2022/05/26 07:51:38;;;;;;;2.70;0.40;;;20.70;1.00;;;;;;8326833;28;20186;-78
2022/05/26 07:55:42;;;;;;;1.97;0.50;;;20.60;1.00;;;;;;8327417;28;20193;-75
2022/05/26 07:59:43;;;;;;;1.00;0.30;;;20.60;1.00;;;;;;8323172;28;20186;-76
2022/05/26 08:03:44;;;;;;;2.73;0.47;;;20.90;1.00;;;;;;8342524;28;20205;-76
2022/05/26 08:07:45;;;;;;;2.33;0.60;;;20.60;1.00;;;;;;8341270;28;20178;-75
2022/05/26 08:11:46;;;;;;;0.50;0.30;;;20.20;1.00;;;;;;8325462;28;20186;-79
2022/05/26 08:15:47;;;;;;;1.00;0.33;;;20.60;1.00;;;;;;8335490;28;20305;-79
2022/05/26 08:19:47;;;;;;;2.83;0.50;;;21.30;1.00;;;;;;8327490;28;20413;-75
2022/05/26 08:23:48;;;;;;;3.20;0.50;;;21.20;1.00;;;;;;8325607;28;20229;-79
2022/05/26 08:27:49;;;;;;;1.93;0.43;;;21.00;1.00;;;;;;8328459;28;20194;-78
2022/05/26 08:31:51;;;;;;;3.07;0.60;;;20.70;1.00;;;;;;8336214;28;20213;-74
2022/05/26 08:36:12;;;;;;;0.93;0.50;;;20.70;1.00;;;;;;8331376;28;20186;-76
2022/05/26 08:40:36;;;;;;;1.03;0.40;;;20.30;1.00;;;;;;8342200;28;20205;-74
2022/05/26 08:44:39;;;;;;;3.17;0.40;;;20.30;1.00;;;;;;8325665;28;20205;-74
2022/05/26 08:48:54;;;;;;;1.23;0.57;;;20.50;1.00;;;;;;8325641;28;20266;-79
2022/05/26 08:53:06;;;;;;;1.50;0.40;;;20.70;1.00;;;;;;8339991;28;20178;-78
2022/05/26 08:57:12;;;;;;;2.10;0.30;;;21.10;1.00;;;;;;8335629;28;20228;-76
2022/05/26 09:01:18;;;;;;;1.83;0.73;;;21.50;1.00;;;;;;8327998;28;20217;-79
2022/05/26 09:05:20;;;;;;;0.50;0.30;;;21.40;1.00;;;;;;8346721;28;20220;-77
2022/05/26 09:13:44;;;;;;;1.37;0.50;;;21.10;1.00;;;;;;8335338;28;20201;-79
2022/05/26 09:17:45;;;;;;;1.50;0.47;;;20.40;1.00;;;;;;8345377;28;20182;-76
2022/05/26 09:21:48;;;;;;;1.63;0.60;;;20.90;1.00;;;;;;8326150;28;20469;-75
2022/05/26 09:25:51;;;;;;;1.97;0.40;;;20.90;1.00;;;;;;8333022;28;20348;-78
2022/05/26 09:30:12;;;;;;;1.47;0.30;;;20.80;1.00;;;;;;8346226;28;20252;-75
2022/05/26 09:34:27;;;;;;;1.93;0.50;;;21.00;1.00;;;;;;8341137;28;20511;-75
2022/05/26 09:38:32;;;;;;;0.87;0.40;;;21.40;1.00;;;;;;8327084;28;20183;-75
2022/05/26 09:42:41;;;;;;;0.80;0.43;;;21.60;1.00;;;;;;8330934;28;20202;-76
2022/05/26 09:46:49;;;;;;;1.00;0.50;;;21.60;1.00;;;;;;8326318;28;20218;-79
2022/05/26 09:51:04;;;;;;;2.30;0.40;;;21.50;1.00;;;;;;8323350;28;20273;-76
2022/05/26 09:55:20;;;;;;;3.20;0.40;;;21.30;1.00;;;;;;8340310;28;20182;-81
2022/05/26 09:59:39;;;;;;;3.83;0.50;;;21.20;1.00;;;;;;8351226;28;20193;-77
2022/05/26 10:03:55;;;;;;;0.97;0.50;;;21.10;1.00;;;;;;8339328;28;20191;-79
2022/05/26 10:08:11;;;;;;;1.03;0.30;;;21.60;1.00;;;;;;8345343;28;20193;-79
2022/05/26 10:12:41;;;;;;;0.77;0.33;;;22.30;1.00;;;;;;8347485;28;20175;-76
2022/05/26 10:16:52;;;;;;;1.67;0.30;;;22.60;1.00;;;;;;8314715;28;20230;-79
2022/05/26 10:21:13;;;;;;;1.37;0.43;;;22.50;1.00;;;;;;8341819;28;20186;-77
2022/05/26 10:25:20;;;;;;;1.13;0.50;;;22.50;1.00;;;;;;8324581;28;20269;-79
2022/05/26 10:29:32;;;;;;;2.40;0.60;;;22.00;1.00;;;;;;8323907;28;20286;-75
2022/05/26 10:34:00;;;;;;;1.57;0.40;;;21.40;1.00;;;;;;8324862;28;20297;-74
2022/05/26 10:38:07;;;;;;;4.63;0.60;;;21.70;1.00;;;;;;8336160;28;20181;-79
2022/05/26 10:42:22;;;;;;;1.37;0.57;;;21.20;1.00;;;;;;8329484;28;20202;-76
2022/05/26 10:46:27;;;;;;;1.47;0.57;;;21.10;1.00;;;;;;8339547;28;20403;-77
2022/05/26 10:50:39;;;;;;;3.83;0.50;;;20.70;1.00;;;;;;8340579;28;20186;-76
2022/05/26 10:55:12;;;;;;;0.40;0.30;;;20.50;1.00;;;;;;8333245;28;20214;-76
2022/05/26 10:59:35;;;;;;;3.27;0.60;;;20.20;1.00;;;;;;8323444;28;20195;-79
2022/05/26 11:03:48;;;;;;;0.47;0.30;;;20.10;1.00;;;;;;8325382;28;20182;-77
2022/05/26 11:08:13;;;;;;;0.60;0.40;;;20.20;1.00;;;;;;8329892;28;20215;-79
2022/05/26 11:12:24;;;;;;;4.90;0.83;;;20.10;1.00;;;;;;8312395;28;20255;-78
2022/05/26 11:21:01;;;;;;;4.07;0.53;;;20.60;1.00;;;;;;8342192;28;20701;-76
2022/05/26 11:25:02;;;;;;;0.60;0.37;;;20.50;1.00;;;;;;8341345;28;20210;-77
2022/05/26 11:29:16;;;;;;;1.20;0.40;;;20.20;1.00;;;;;;8325040;28;20296;-77
2022/05/26 11:37:56;;;;;;;2.40;0.50;;;21.00;1.00;;;;;;8344778;28;20204;-82
2022/05/26 11:42:02;;;;;;;1.23;0.30;;;21.90;1.00;;;;;;8348273;28;20212;-80
2022/05/26 11:46:03;;;;;;;3.90;0.40;;;21.90;1.00;;;;;;8326180;28;20257;-79
2022/05/26 11:50:42;;;;;;;0.90;0.40;;;21.60;1.00;;;;;;8345463;28;20718;-79
2022/05/26 11:55:03;;;;;;;0.87;0.40;;;21.70;1.00;;;;;;8276766;28;20190;-81
2022/05/26 11:59:32;;;;;;;1.10;0.50;;;21.70;1.00;;;;;;8334757;28;20273;-75
2022/05/26 12:03:47;;;;;;;2.73;0.50;;;21.40;1.00;;;;;;8338226;28;20181;-79
2022/05/26 12:07:49;;;;;;;1.37;0.50;;;21.10;1.00;;;;;;8321177;28;20272;-75
2022/05/26 12:12:02;;;;;;;1.13;0.60;;;20.90;1.00;;;;;;8327841;28;20182;-77
2022/05/26 12:16:10;;;;;;;1.00;0.30;;;21.00;1.00;;;;;;8340360;28;20270;-75
2022/05/26 12:20:11;;;;;;;2.57;0.40;;;21.00;1.00;;;;;;8328308;28;20280;-77
2022/05/26 12:24:31;;;;;;;0.80;0.60;;;20.80;1.00;;;;;;8333081;28;20640;-75
2022/05/26 12:28:32;;;;;;;1.43;0.30;;;21.20;1.00;;;;;;8337488;28;20230;-76
2022/05/26 12:32:36;;;;;;;0.80;0.40;;;21.50;1.00;;;;;;8316285;28;20186;-77
2022/05/26 12:36:57;;;;;;;0.77;0.43;;;21.30;1.00;;;;;;8324582;28;20204;-76
2022/05/26 12:41:13;;;;;;;0.67;0.30;;;21.20;1.00;;;;;;8340637;28;20201;-77
2022/05/26 12:45:41;;;;;;;0.50;0.27;;;21.20;1.00;;;;;;8341798;28;20206;-76
2022/05/26 12:49:54;;;;;;;1.90;0.30;;;21.60;1.00;;;;;;8342150;28;20202;-78
2022/05/26 12:53:59;;;;;;;3.80;0.40;;;21.30;1.00;;;;;;8348946;28;20182;-76
2022/05/26 12:58:06;;;;;;;0.80;0.20;;;20.80;1.00;;;;;;8327561;28;20214;-77
2022/05/26 13:02:08;;;;;;;0.87;0.47;;;20.40;1.00;;;;;;8332773;28;20186;-76
2022/05/26 13:06:21;;;;;;;0.63;0.40;;;20.40;1.00;;;;;;8347571;28;20215;-80
2022/05/26 13:10:26;;;;;;;0.40;0.30;;;20.30;1.00;;;;;;8338468;28;20190;-75
2022/05/26 13:14:38;;;;;;;0.50;0.37;;;20.60;1.00;;;;;;8334046;28;20190;-79
2022/05/26 13:18:39;;;;;;;0.97;0.33;;;21.20;1.00;;;;;;8332207;28;20198;-77
2022/05/26 13:22:39;;;;;;;0.50;0.40;;;22.10;1.00;;;;;;8337111;28;20222;-77
2022/05/26 13:26:42;;;;;;;2.43;0.27;;;22.50;1.00;;;;;;8341459;28;20232;-79
2022/05/26 13:35:18;;;;;;;0.43;0.23;;;20.80;1.00;;;;;;8354227;28;20501;-75
2022/05/26 13:39:22;;;;;;;1.17;0.40;;;20.50;1.00;;;;;;8326943;28;20201;-76
2022/05/26 13:43:24;;;;;;;1.83;0.30;;;20.40;1.00;;;;;;8327967;28;20199;-80
2022/05/26 13:47:26;;;;;;;0.80;0.40;;;20.30;1.00;;;;;;8341195;28;20237;-77
2022/05/26 13:51:48;;;;;;;1.73;0.37;;;20.30;1.00;;;;;;8330691;28;20183;-79
2022/05/26 13:55:50;;;;;;;2.30;0.40;;;20.30;1.00;;;;;;8334929;28;20276;-77
2022/05/26 13:59:56;;;;;;;1.07;0.50;;;20.10;1.00;;;;;;8333512;28;20185;-76
2022/05/26 14:03:59;;;;;;;2.80;0.40;;;19.90;1.00;;;;;;8336333;28;20327;-75
2022/05/26 14:08:05;;;;;;;1.87;0.37;;;19.60;1.00;;;;;;8335367;28;20181;-77
2022/05/26 14:12:22;;;;;;;1.03;0.40;;;19.60;11.50;;;;;;8323038;28;20178;-75
2022/05/26 14:16:27;;;;;;;2.60;0.63;;;19.60;11.80;;;;;;8327048;28;20193;-76
2022/05/26 14:20:29;;;;;;;0.80;0.30;;;20.10;16.30;;;;;;8328515;28;20181;-78
2022/05/26 14:24:37;;;;;;;2.13;0.50;;;20.40;1.00;;;;;;8332718;28;20197;-77
2022/05/26 14:28:42;;;;;;;2.27;0.40;;;20.60;1.00;;;;;;8331916;28;20194;-76
2022/05/26 14:32:43;;;;;;;0.73;0.40;;;20.50;1.00;;;;;;8329473;28;20640;-76
2022/05/26 14:36:44;;;;;;;0.80;0.40;;;20.30;1.00;;;;;;8342738;28;20191;-77
2022/05/26 14:40:46;;;;;;;2.07;0.40;;;20.20;1.00;;;;;;8322769;28;20531;-80
2022/05/26 14:44:48;;;;;;;1.57;0.50;;;20.10;5.20;;;;;;8341751;28;20256;-78
2022/05/26 14:48:49;;;;;;;3.50;0.50;;;20.10;1.00;;;;;;8325499;28;20192;-76
2022/05/26 14:52:51;;;;;;;1.67;0.43;;;20.40;3.30;;;;;;8333244;28;20190;-76
2022/05/26 14:56:52;;;;;;;2.37;0.60;;;21.00;1.00;;;;;;8327873;28;20186;-80
2022/05/26 15:00:55;;;;;;;2.43;0.77;;;21.30;1.00;;;;;;8342162;28;20194;-76
2022/05/26 15:04:55;;;;;;;2.53;0.67;;;20.80;1.00;;;;;;8330368;28;20308;-76
2022/05/26 15:08:56;;;;;;;2.40;0.30;;;20.70;1.00;;;;;;8321314;28;20183;-77
2022/05/26 15:12:57;;;;;;;1.53;0.50;;;20.60;1.00;;;;;;8324549;28;20194;-77
2022/05/26 15:17:02;;;;;;;10.87;2.40;;;20.50;1.00;;;;;;8327747;28;20294;-78
2022/05/26 15:21:03;;;;;;;0.90;0.40;;;20.40;1.00;;;;;;8331464;28;20207;-80
2022/05/26 15:25:07;;;;;;;1.87;0.50;;;20.20;1.00;;;;;;8340318;28;20225;-79
2022/05/26 15:29:08;;;;;;;2.40;0.60;;;20.30;1.00;;;;;;8345045;28;20201;-76
2022/05/26 15:33:09;;;;;;;1.63;0.53;;;20.70;1.00;;;;;;8329522;28;20182;-79
2022/05/26 15:37:11;;;;;;;3.30;0.63;;;21.10;1.00;;;;;;8329682;28;20208;-79
2022/05/26 15:41:13;;;;;;;1.57;0.60;;;20.90;1.00;;;;;;8331478;28;20202;-75
2022/05/26 15:45:14;;;;;;;1.60;0.90;;;21.00;1.00;;;;;;8324742;28;20212;-76
2022/05/26 15:49:18;;;;;;;4.33;0.77;;;21.20;1.00;;;;;;8326283;28;20185;-76
2022/05/26 15:53:19;;;;;;;1.93;0.80;;;21.00;1.00;;;;;;8328955;28;20261;-80
2022/05/26 15:57:20;;;;;;;2.40;0.83;;;20.70;1.00;;;;;;8327173;28;20186;-76
2022/05/26 16:01:20;;;;;;;1.87;1.00;;;20.40;1.00;;;;;;8322805;28;20186;-76
2022/05/26 16:05:22;;;;;;;6.33;1.13;;;20.30;1.00;;;;;;8334110;28;20306;-76
2022/05/26 16:09:25;;;;;;;5.53;0.93;;;20.10;1.00;;;;;;8338148;28;20190;-78
2022/05/26 16:13:26;;;;;;;4.53;0.90;;;19.90;1.00;;;;;;8325518;28;20179;-80
2022/05/26 16:17:27;;;;;;;1.43;0.73;;;19.90;1.00;;;;;;8325115;28;20193;-80
2022/05/26 16:21:28;;;;;;;2.77;1.10;;;19.90;1.00;;;;;;8320877;28;20201;-77
2022/05/26 16:25:29;;;;;;;2.00;1.10;;;19.90;1.00;;;;;;8344419;28;20225;-77
2022/05/26 16:29:30;;;;;;;2.03;1.00;;;20.10;1.00;;;;;;8337830;28;20205;-80
2022/05/26 16:33:32;;;;;;;1.43;0.90;;;20.60;1.00;;;;;;8328004;28;20187;-76
2022/05/26 16:37:34;;;;;;;3.20;0.93;;;20.70;1.00;;;;;;8325402;28;20186;-79
2022/05/26 16:41:34;;;;;;;1.10;0.73;;;20.20;1.00;;;;;;8326798;28;20210;-77
2022/05/26 16:45:37;;;;;;;2.80;1.20;;;19.90;1.00;;;;;;8324797;28;20309;-77
2022/05/26 16:49:37;;;;;;;1.40;0.90;;;19.80;1.00;;;;;;8333344;28;20267;-80
2022/05/26 16:53:38;;;;;;;3.00;0.80;;;19.80;1.00;;;;;;8335133;28;20182;-80
2022/05/26 16:57:39;;;;;;;1.17;0.80;;;20.10;1.00;;;;;;8320276;28;20244;-76
2022/05/26 17:01:40;;;;;;;2.53;0.77;;;20.20;1.00;;;;;;8339157;28;20197;-76
2022/05/26 17:05:42;;;;;;;1.27;0.90;;;20.10;1.00;;;;;;8324316;28;20210;-80
2022/05/26 17:09:43;;;;;;;1.87;1.13;;;20.00;1.00;;;;;;8336554;28;20312;-76
2022/05/26 17:22:24;;;;;;;1.40;0.70;;;19.50;1.00;;;;;;8342042;28;20286;-80
2022/05/26 17:26:35;;;;;;;2.10;0.90;;;19.50;1.00;;;;;;8341852;28;20304;-76
2022/05/26 17:30:39;;;;;;;3.03;1.20;;;19.40;1.00;;;;;;8338138;28;20204;-78
2022/05/26 17:34:42;;;;;;;0.90;0.70;;;19.40;1.00;;;;;;8334117;28;20191;-79
2022/05/26 17:38:44;;;;;;;1.80;0.80;;;19.40;1.00;;;;;;8352013;28;20283;-77
2022/05/26 17:42:45;;;;;;;1.60;1.00;;;19.40;1.00;;;;;;8340194;28;20197;-80
2022/05/26 17:46:49;;;;;;;1.37;0.90;;;19.30;1.00;;;;;;8328236;28;20213;-76
2022/05/26 17:50:52;;;;;;;4.73;0.80;;;19.20;1.00;;;;;;8329411;28;20187;-76
2022/05/26 17:55:01;;;;;;;1.57;1.03;;;19.00;1.00;;;;;;8344088;28;20292;-76
2022/05/26 17:59:02;;;;;;;1.93;0.80;;;18.90;1.00;;;;;;8338326;28;20181;-77
2022/05/26 18:03:07;;;;;;;1.27;0.87;;;18.90;2.30;;;;;;8339126;28;20254;-76
2022/05/26 18:07:08;;;;;;;2.20;0.93;;;18.90;12.30;;;;;;8322333;28;20248;-78
2022/05/26 18:11:11;;;;;;;2.20;0.90;;;18.80;15.10;;;;;;8326954;28;20236;-76
2022/05/26 18:15:12;;;;;;;2.83;0.90;;;18.70;20.20;;;;;;8329327;28;20217;-76
2022/05/26 18:19:18;;;;;;;1.57;0.93;;;18.70;24.00;;;;;;8318178;28;20196;-76
2022/05/26 18:23:25;;;;;;;1.33;0.80;;;18.60;34.60;;;;;;8325479;28;20190;-79
2022/05/26 18:27:26;;;;;;;2.40;1.20;;;18.50;45.90;;;;;;8322909;28;20228;-75
2022/05/26 18:31:33;;;;;;;3.40;1.10;;;18.50;47.70;;;;;;8341315;28;20189;-77
2022/05/26 18:35:37;;;;;;;2.60;1.03;;;18.40;57.70;;;;;;8328278;28;20194;-79
2022/05/26 18:39:39;;;;;;;2.83;1.10;;;18.40;68.90;;;;;;8324255;28;20214;-77
2022/05/26 18:43:40;;;;;;;1.80;0.90;;;18.30;83.40;;;;;;8352157;28;20249;-75
2022/05/26 18:47:44;;;;;;;2.63;1.10;;;18.20;93.00;;;;;;8341626;28;20300;-78
2022/05/26 18:51:45;;;;;;;4.77;1.23;;;18.10;97.30;;;;;;8336986;28;20654;-78
2022/05/26 18:55:48;;;;;;;1.53;1.10;;;18.10;99.90;;;;;;8321570;28;20192;-75
2022/05/26 18:59:49;;;;;;;1.83;1.10;;;18.10;99.90;;;;;;8324370;28;20218;-76
2022/05/26 19:03:51;;;;;;;3.43;1.20;;;18.10;99.90;;;;;;8325259;28;20209;-75
2022/05/26 19:07:52;;;;;;;1.27;1.07;;;18.00;99.90;;;;;;8330016;28;20228;-77
2022/05/26 19:11:54;;;;;;;2.50;1.30;;;18.00;99.90;;;;;;8337114;28;20189;-76
2022/05/26 19:15:56;;;;;;;2.27;1.10;;;17.90;99.90;;;;;;8323600;28;20225;-76
2022/05/26 19:19:57;;;;;;;1.30;1.20;;;17.90;99.90;;;;;;8329049;28;20196;-77
2022/05/26 19:23:58;;;;;;;3.80;1.20;;;17.90;99.90;;;;;;8322268;28;20190;-79
2022/05/26 19:27:59;;;;;;;3.50;1.60;;;17.80;99.90;;;;;;8350591;28;20247;-79
2022/05/26 19:32:00;;;;;;;2.83;1.40;;;17.80;99.90;;;;;;8327126;28;20272;-80
2022/05/26 19:36:03;;;;;;;2.03;1.40;;;17.70;99.90;;;;;;8325763;28;20273;-79
2022/05/26 19:40:05;;;;;;;2.50;1.43;;;17.70;99.90;;;;;;8330267;28;20226;-79
2022/05/26 19:44:06;;;;;;;2.23;1.30;;;17.60;99.90;;;;;;8325049;28;20197;-79
2022/05/26 19:48:08;;;;;;;2.93;1.37;;;17.60;99.90;;;;;;8342132;28;20209;-80
2022/05/26 19:52:09;;;;;;;1.70;1.50;;;17.50;99.90;;;;;;8320135;28;20236;-79
2022/05/26 19:56:10;;;;;;;2.13;1.50;;;17.50;99.90;;;;;;8330789;28;20201;-79
2022/05/26 20:00:16;;;;;;;5.87;1.60;;;17.50;99.90;;;;;;8323946;28;20206;-78
2022/05/26 20:04:17;;;;;;;2.20;1.20;;;17.40;99.90;;;;;;8321901;28;20286;-79
2022/05/26 20:08:21;;;;;;;3.20;1.57;;;17.40;99.90;;;;;;8331207;28;20181;-79
2022/05/26 20:12:23;;;;;;;1.53;1.40;;;17.30;99.90;;;;;;8328225;28;20178;-80
2022/05/26 20:16:26;;;;;;;1.63;1.20;;;17.30;99.90;;;;;;8326612;28;20194;-80
2022/05/26 20:20:29;;;;;;;1.80;1.20;;;17.30;99.90;;;;;;8322922;28;20182;-79
2022/05/26 20:24:30;;;;;;;1.53;1.40;;;17.20;99.90;;;;;;8335039;28;20288;-79
2022/05/26 20:32:54;;;;;;;1.47;1.37;;;17.10;99.90;;;;;;8339297;28;20196;-79
2022/05/26 20:36:57;;;;;;;1.80;1.50;;;17.10;99.90;;;;;;8322884;28;20310;-80
2022/05/26 20:40:58;;;;;;;3.00;1.60;;;17.00;99.90;;;;;;8327518;28;20202;-79
2022/05/26 20:44:59;;;;;;;3.10;1.73;;;17.00;99.90;;;;;;8320955;28;20255;-79
2022/05/26 20:49:00;;;;;;;2.67;1.60;;;17.00;99.90;;;;;;8320902;28;20185;-79
2022/05/26 20:53:00;;;;;;;1.90;1.50;;;16.90;99.90;;;;;;8325255;28;20181;-79
2022/05/26 20:57:03;;;;;;;2.73;1.80;;;16.90;99.90;;;;;;8325944;28;20230;-78
2022/05/26 21:01:04;;;;;;;3.93;1.77;;;16.90;99.90;;;;;;8327303;28;20187;-78
2022/05/26 21:05:07;;;;;;;2.20;1.70;;;16.90;99.90;;;;;;8338649;28;20213;-79
2022/05/26 21:09:08;;;;;;;2.17;1.63;;;16.90;99.90;;;;;;8332234;28;20186;-80
2022/05/26 21:13:10;;;;;;;2.33;1.93;;;16.90;99.90;;;;;;8350512;28;20182;-80
2022/05/26 21:17:13;;;;;;;4.20;2.00;;;16.90;99.90;;;;;;8334598;28;20187;-78
2022/05/26 21:21:16;;;;;;;2.70;2.03;;;16.90;99.90;;;;;;8316916;28;20595;-78
2022/05/26 21:25:17;;;;;;;1.70;1.60;;;16.90;99.90;;;;;;8328689;28;20218;-78
2022/05/26 21:29:33;;;;;;;2.27;2.07;;;16.80;99.90;;;;;;8334578;28;20316;-79
2022/05/26 21:33:34;;;;;;;2.00;1.77;;;16.80;99.90;;;;;;8327819;28;20198;-77
2022/05/26 21:37:35;;;;;;;4.43;1.80;;;16.80;99.90;;;;;;8335503;28;20193;-79
2022/05/26 21:41:36;;;;;;;4.07;2.10;;;16.80;99.90;;;;;;8324858;28;20210;-80
2022/05/26 21:45:40;;;;;;;5.27;2.20;;;16.80;99.90;;;;;;8334368;28;20225;-79
2022/05/26 21:49:41;;;;;;;3.10;1.77;;;16.80;99.90;;;;;;8342223;28;20190;-79
2022/05/26 21:53:43;;;;;;;2.50;1.80;;;16.80;99.90;;;;;;8333532;28;20226;-77
2022/05/26 21:57:44;;;;;;;4.53;1.90;;;16.70;99.90;;;;;;8329336;28;20190;-79
2022/05/26 22:01:46;;;;;;;3.23;1.80;;;16.70;99.90;;;;;;8335670;28;20194;-78
2022/05/26 22:14:28;;;;;;;3.93;1.90;;;16.70;99.90;;;;;;8345100;28;20289;-80
2022/05/26 22:18:29;;;;;;;3.50;1.70;;;16.60;99.90;;;;;;8323838;28;20249;-79
2022/05/26 22:22:30;;;;;;;2.27;1.80;;;16.60;99.90;;;;;;8341592;28;20190;-79